createdAt,value
2023-12-04T00:01:50.316Z,-2.20
2023-12-04T00:04:17.590Z,-2.20
2023-12-04T00:06:44.954Z,-2.20
2023-12-04T00:09:12.141Z,-2.20
2023-12-04T00:11:39.290Z,-2.10
2023-12-04T00:14:06.703Z,-2.00
2023-12-04T00:16:36.970Z,-2.00
2023-12-04T00:19:04.184Z,-2.00
2023-12-04T00:21:31.386Z,-2.10
2023-12-04T00:23:58.484Z,-2.20
2023-12-04T00:26:25.536Z,-2.30
2023-12-04T00:28:52.582Z,-2.30
2023-12-04T00:31:19.610Z,-2.30
2023-12-04T00:33:47.347Z,-2.30
2023-12-04T00:36:14.477Z,-2.30
2023-12-04T00:38:41.735Z,-2.40
2023-12-04T00:41:08.887Z,-2.40
2023-12-04T00:43:36.046Z,-2.50
2023-12-04T00:46:03.924Z,-2.40
2023-12-04T00:48:31.050Z,-2.50
2023-12-04T00:50:59.810Z,-2.40
2023-12-04T00:53:26.780Z,-2.40
2023-12-04T00:55:54.526Z,-2.40
2023-12-04T00:58:21.576Z,-2.50
2023-12-04T01:00:50.428Z,-2.50
2023-12-04T01:03:17.738Z,-2.40
2023-12-04T01:05:44.851Z,-2.50
2023-12-04T01:08:11.924Z,-2.50
2023-12-04T01:10:40.643Z,-2.50
2023-12-04T01:13:07.763Z,-2.60
2023-12-04T01:15:35.125Z,-2.60
2023-12-04T01:18:02.366Z,-2.60
2023-12-04T01:20:29.767Z,-2.60
2023-12-04T01:22:58.413Z,-2.60
2023-12-04T01:25:25.454Z,-2.60
2023-12-04T01:27:52.568Z,-2.60
2023-12-04T01:30:19.682Z,-2.60
2023-12-04T01:32:46.756Z,-2.60
2023-12-04T01:35:13.969Z,-2.60
2023-12-04T01:37:41.037Z,-2.70
2023-12-04T01:40:09.053Z,-2.60
2023-12-04T01:42:36.145Z,-2.50
2023-12-04T01:45:03.541Z,-2.50
2023-12-04T01:47:30.872Z,-2.50
2023-12-04T01:49:58.212Z,-2.50
2023-12-04T01:52:25.329Z,-2.60
2023-12-04T01:54:52.914Z,-2.50
2023-12-04T01:57:20.845Z,-2.50
2023-12-04T01:59:48.478Z,-2.40
2023-12-04T02:02:15.632Z,-2.30
2023-12-04T02:04:43.144Z,-2.20
2023-12-04T02:07:11.042Z,-2.20
2023-12-04T02:09:39.185Z,-2.20
2023-12-04T02:12:07.391Z,-2.20
2023-12-04T02:14:34.816Z,-2.10
2023-12-04T02:17:04.286Z,-2.10
2023-12-04T02:19:31.526Z,-2.10
2023-12-04T02:21:58.837Z,-2.10
2023-12-04T02:24:26.592Z,-2.00
2023-12-04T02:27:00.644Z,-2.00
2023-12-04T02:29:41.544Z,-2.00
2023-12-04T02:32:12.148Z,-2.00
2023-12-04T02:34:41.791Z,-2.00
2023-12-04T02:37:10.746Z,-1.90
2023-12-04T02:39:38.481Z,-2.00
2023-12-04T02:42:05.787Z,-2.00
2023-12-04T02:44:32.838Z,-2.10
2023-12-04T02:47:00.365Z,-2.10
2023-12-04T02:49:27.698Z,-2.10
2023-12-04T02:51:55.188Z,-2.20
2023-12-04T02:54:22.222Z,-2.20
2023-12-04T02:56:49.327Z,-2.10
2023-12-04T02:59:16.505Z,-2.10
2023-12-04T03:01:43.644Z,-2.10
2023-12-04T03:04:10.760Z,-2.20
2023-12-04T03:06:38.003Z,-2.20
2023-12-04T03:09:06.213Z,-2.30
2023-12-04T03:11:33.297Z,-2.30
2023-12-04T03:14:01.900Z,-2.20
2023-12-04T03:16:29.105Z,-2.10
2023-12-04T03:18:56.326Z,-2.00
2023-12-04T03:21:23.503Z,-2.00
2023-12-04T03:23:52.032Z,-2.00
2023-12-04T03:26:19.096Z,-2.10
2023-12-04T03:28:46.212Z,-2.00
2023-12-04T03:31:13.921Z,-2.00
2023-12-04T03:33:41.103Z,-1.90
2023-12-04T03:36:08.934Z,-1.80
2023-12-04T03:38:36.115Z,-1.80
2023-12-04T03:41:03.291Z,-1.80
2023-12-04T03:43:30.343Z,-1.70
2023-12-04T03:45:57.425Z,-1.60
2023-12-04T03:48:24.653Z,-1.70
2023-12-04T03:50:51.920Z,-1.60
2023-12-04T03:53:18.988Z,-1.60
2023-12-04T03:55:46.008Z,-1.50
2023-12-04T03:58:13.123Z,-1.40
2023-12-04T04:00:42.910Z,-1.30
2023-12-04T04:03:10.550Z,-1.10
2023-12-04T04:05:38.166Z,-1.10
2023-12-04T04:08:06.560Z,-1.20
2023-12-04T04:10:33.664Z,-1.20
2023-12-04T04:13:01.281Z,-1.20
2023-12-04T04:15:28.746Z,-1.20
2023-12-04T04:17:55.920Z,-1.10
2023-12-04T04:20:24.098Z,-1.10
2023-12-04T04:22:51.086Z,-1.10
2023-12-04T04:25:18.245Z,-1.10
2023-12-04T04:27:45.507Z,-1.10
2023-12-04T04:30:14.916Z,-1.10
2023-12-04T04:32:42.220Z,-1.00
2023-12-04T04:35:09.877Z,-1.00
2023-12-04T04:37:37.234Z,-1.10
2023-12-04T04:40:05.235Z,-1.10
2023-12-04T04:42:32.423Z,-1.20
2023-12-04T04:44:59.697Z,-1.10
2023-12-04T04:47:26.809Z,-1.20
2023-12-04T04:49:54.025Z,-1.10
2023-12-04T04:52:21.287Z,-1.10
2023-12-04T04:54:48.557Z,-1.10
2023-12-04T04:57:15.629Z,-1.00
2023-12-04T04:59:42.759Z,-0.90
2023-12-04T05:02:09.877Z,-0.90
2023-12-04T05:04:38.140Z,-0.90
2023-12-04T05:07:05.525Z,-0.90
2023-12-04T05:09:32.636Z,-0.90
2023-12-04T05:11:59.729Z,-0.90
2023-12-04T05:14:28.325Z,-0.90
2023-12-04T05:16:55.402Z,-0.90
2023-12-04T05:19:22.605Z,-0.80
2023-12-04T05:21:49.820Z,-0.70
2023-12-04T05:24:16.971Z,-0.70
2023-12-04T05:26:44.750Z,-0.90
2023-12-04T05:29:11.834Z,-0.90
2023-12-04T05:31:38.954Z,-0.90
2023-12-04T05:34:06.333Z,-0.90
2023-12-04T05:36:33.610Z,-0.80
2023-12-04T05:39:01.758Z,-0.80
2023-12-04T05:41:29.028Z,-0.70
2023-12-04T05:43:56.124Z,-0.70
2023-12-04T05:46:23.438Z,-0.60
2023-12-04T05:48:50.659Z,-0.60
2023-12-04T05:51:17.948Z,-0.60
2023-12-04T05:53:45.045Z,-0.70
2023-12-04T05:56:12.362Z,-0.70
2023-12-04T05:58:39.529Z,-0.70
2023-12-04T06:01:07.662Z,-0.70
2023-12-04T06:03:35.098Z,-0.80
2023-12-04T06:06:04.624Z,-0.80
2023-12-04T06:08:32.515Z,-0.70
2023-12-04T06:10:59.728Z,-0.80
2023-12-04T06:13:26.734Z,-0.80
2023-12-04T06:15:53.951Z,-0.80
2023-12-04T06:18:22.125Z,-0.80
2023-12-04T06:20:50.152Z,-0.70
2023-12-04T06:23:17.547Z,-0.60
2023-12-04T06:25:45.140Z,-0.60
2023-12-04T06:28:12.604Z,-0.40
2023-12-04T06:30:40.179Z,-0.40
2023-12-04T06:33:08.246Z,-0.30
2023-12-04T06:35:35.611Z,-0.40
2023-12-04T06:38:08.270Z,-0.40
2023-12-04T06:40:36.710Z,-0.30
2023-12-04T06:43:04.318Z,-0.30
2023-12-04T06:45:33.686Z,-0.30
2023-12-04T06:48:01.812Z,-0.30
2023-12-04T06:50:29.093Z,-0.20
2023-12-04T06:52:56.253Z,-0.20
2023-12-04T06:55:24.771Z,-0.10
2023-12-04T06:57:51.991Z,0.00
2023-12-04T07:00:21.946Z,0.00
2023-12-04T07:02:51.532Z,0.10
2023-12-04T07:05:20.281Z,0.10
2023-12-04T07:07:47.611Z,0.00
2023-12-04T07:10:16.700Z,0.00
2023-12-04T07:12:45.079Z,-0.10
2023-12-04T07:15:12.938Z,0.00
2023-12-04T07:17:41.527Z,-0.10
2023-12-04T07:20:09.679Z,-0.20
2023-12-04T07:22:38.725Z,-0.30
2023-12-04T07:25:08.893Z,-0.30
2023-12-04T07:27:36.550Z,-0.30
2023-12-04T07:30:04.734Z,-0.20
2023-12-04T07:32:33.965Z,-0.10
2023-12-04T07:35:01.747Z,-0.10
2023-12-04T07:37:31.522Z,0.00
2023-12-04T07:39:58.706Z,0.10
2023-12-04T07:42:26.209Z,0.10
2023-12-04T07:44:53.306Z,0.20
2023-12-04T07:47:21.174Z,0.30
2023-12-04T07:49:48.298Z,0.30
2023-12-04T07:52:15.544Z,0.30
2023-12-04T07:54:43.192Z,0.40
2023-12-04T07:57:10.252Z,0.50
2023-12-04T07:59:37.344Z,0.50
2023-12-04T08:02:04.717Z,0.60
2023-12-04T08:04:31.876Z,0.70
2023-12-04T08:06:59.176Z,0.80
2023-12-04T08:09:26.506Z,1.00
2023-12-04T08:11:55.865Z,0.80
2023-12-04T08:14:25.671Z,0.70
2023-12-04T08:16:52.697Z,0.80
2023-12-04T08:19:19.920Z,0.90
2023-12-04T08:21:47.855Z,0.90
2023-12-04T08:24:15.216Z,0.80
2023-12-04T08:26:42.301Z,0.70
2023-12-04T08:29:09.414Z,0.90
2023-12-04T08:31:36.431Z,1.00
2023-12-04T08:34:03.480Z,1.20
2023-12-04T08:36:44.630Z,1.20
2023-12-04T08:39:14.370Z,1.20
2023-12-04T08:41:47.848Z,1.30
2023-12-04T08:44:18.561Z,1.50
2023-12-04T08:46:46.493Z,1.60
2023-12-04T08:49:13.729Z,1.70
2023-12-04T08:51:40.974Z,1.80
2023-12-04T08:56:38.709Z,1.90
2023-12-04T08:59:05.878Z,1.90
2023-12-04T09:01:33.082Z,2.00
2023-12-04T09:04:00.733Z,1.90
2023-12-04T09:08:24.888Z,1.80
2023-12-04T09:09:17.222Z,1.90
2023-12-04T09:11:45.087Z,1.90
2023-12-04T09:14:12.524Z,2.00
2023-12-04T09:16:39.772Z,2.00
2023-12-04T09:19:06.987Z,2.00
2023-12-04T09:21:34.931Z,2.10
2023-12-04T09:24:02.129Z,2.20
2023-12-04T09:26:29.334Z,2.20
2023-12-04T09:28:56.385Z,2.30
2023-12-04T09:31:23.544Z,2.40
2023-12-04T09:33:50.644Z,2.50
2023-12-04T09:36:17.967Z,2.50
2023-12-04T09:38:45.309Z,2.60
2023-12-04T09:41:13.956Z,2.70
2023-12-04T09:43:42.950Z,2.70
2023-12-04T09:46:10.923Z,2.70
2023-12-04T09:48:39.258Z,2.80
2023-12-04T09:51:07.917Z,3.00
2023-12-04T09:53:36.631Z,3.00
2023-12-04T09:56:05.471Z,3.10
2023-12-04T09:58:33.723Z,3.30
2023-12-04T10:01:02.954Z,3.40
2023-12-04T10:03:31.345Z,3.60
2023-12-04T10:05:59.174Z,3.80
2023-12-04T10:08:26.397Z,4.00
2023-12-04T10:10:53.478Z,4.20
2023-12-04T10:13:55.473Z,4.30
2023-12-04T10:16:08.848Z,4.40
2023-12-04T10:18:36.110Z,4.50
2023-12-04T10:21:11.613Z,4.50
2023-12-04T10:23:45.414Z,4.50
2023-12-04T10:26:17.335Z,4.50
2023-12-04T10:29:02.277Z,4.50
2023-12-04T10:31:35.235Z,4.30
2023-12-04T10:34:06.058Z,4.30
2023-12-04T10:36:35.335Z,4.30
2023-12-04T10:39:05.836Z,4.40
2023-12-04T10:41:33.223Z,4.50
2023-12-04T10:44:09.815Z,4.50
2023-12-04T10:46:38.796Z,4.50
2023-12-04T10:49:07.218Z,4.50
2023-12-04T10:51:35.913Z,4.50
2023-12-04T10:54:06.831Z,4.50
2023-12-04T10:56:44.477Z,4.50
2023-12-04T10:59:21.455Z,4.60
2023-12-04T11:01:49.804Z,4.70
2023-12-04T11:04:21.719Z,4.90
2023-12-04T11:06:53.513Z,5.10
2023-12-04T11:09:22.937Z,5.30
2023-12-04T11:11:55.077Z,5.60
2023-12-04T11:14:25.587Z,5.80
2023-12-04T11:17:07.056Z,6.10
2023-12-04T11:19:51.744Z,6.40
2023-12-04T11:22:21.495Z,6.70
2023-12-04T11:24:52.265Z,6.80
2023-12-04T11:27:20.145Z,7.00
2023-12-04T11:29:49.148Z,7.40
2023-12-04T11:32:19.600Z,7.60
2023-12-04T11:34:55.743Z,7.80
2023-12-04T11:37:23.281Z,7.90
2023-12-04T11:39:51.536Z,7.90
2023-12-04T11:42:26.414Z,7.80
2023-12-04T11:45:00.396Z,7.70
2023-12-04T11:47:29.967Z,7.80
2023-12-04T11:49:59.134Z,8.00
2023-12-04T11:52:35.896Z,8.20
2023-12-04T11:55:07.113Z,8.40
2023-12-04T11:57:39.881Z,8.60
2023-12-04T12:00:11.397Z,8.70
2023-12-04T12:03:14.542Z,8.50
2023-12-04T12:05:29.536Z,8.30
2023-12-04T12:07:56.850Z,8.00
2023-12-04T12:10:24.393Z,7.80
2023-12-04T12:12:52.808Z,7.50
2023-12-04T12:15:20.069Z,7.50
2023-12-04T12:17:47.252Z,7.40
2023-12-04T12:20:16.096Z,7.20
2023-12-04T12:22:45.060Z,7.00
2023-12-04T12:25:12.849Z,6.80
2023-12-04T12:27:40.934Z,6.70
2023-12-04T12:30:08.868Z,6.60
2023-12-04T12:32:37.051Z,6.50
2023-12-04T12:35:04.892Z,6.20
2023-12-04T12:37:32.297Z,6.10
2023-12-04T12:39:59.395Z,6.00
2023-12-04T12:42:27.714Z,5.90
2023-12-04T12:44:56.535Z,5.90
2023-12-04T12:47:24.579Z,5.90
2023-12-04T12:49:51.663Z,5.80
2023-12-04T12:52:18.858Z,5.80
2023-12-04T12:54:46.813Z,5.70
2023-12-04T12:57:14.740Z,5.60
2023-12-04T12:59:42.413Z,5.60
2023-12-04T13:02:11.455Z,5.60
2023-12-04T13:04:41.563Z,5.70
2023-12-04T13:07:08.887Z,5.80
2023-12-04T13:09:37.094Z,6.00
2023-12-04T13:12:05.749Z,6.20
2023-12-04T13:14:35.784Z,6.50
2023-12-04T13:17:03.953Z,6.80
2023-12-04T13:19:32.944Z,7.20
2023-12-04T13:22:00.129Z,7.50
2023-12-04T13:24:27.253Z,7.60
2023-12-04T13:26:54.429Z,7.60
2023-12-04T13:29:21.547Z,7.50
2023-12-04T13:31:51.798Z,7.40
2023-12-04T13:34:19.264Z,7.30
2023-12-04T13:36:46.453Z,7.10
2023-12-04T13:39:29.082Z,7.00
2023-12-04T13:42:14.988Z,6.90
2023-12-04T13:44:42.546Z,6.70
2023-12-04T13:47:09.862Z,6.50
2023-12-04T13:49:36.925Z,6.40
2023-12-04T13:52:08.756Z,6.30
2023-12-04T13:54:45.889Z,6.10
2023-12-04T13:57:20.339Z,6.00
2023-12-04T13:59:47.385Z,6.00
2023-12-04T14:02:16.004Z,5.80
2023-12-04T14:04:43.631Z,5.80
2023-12-04T14:07:13.107Z,5.70
2023-12-04T14:09:41.202Z,5.60
2023-12-04T14:12:09.839Z,5.50
2023-12-04T14:14:37.540Z,5.50
2023-12-04T14:17:05.964Z,5.40
2023-12-04T14:19:33.224Z,5.40
2023-12-04T14:22:00.373Z,5.30
2023-12-04T14:24:27.515Z,5.30
2023-12-04T14:26:54.820Z,5.20
2023-12-04T14:29:21.969Z,5.20
2023-12-04T14:31:49.187Z,5.10
2023-12-04T14:34:16.495Z,5.00
2023-12-04T14:36:43.750Z,5.00
2023-12-04T14:39:12.039Z,4.90
2023-12-04T14:41:39.327Z,4.80
2023-12-04T14:44:06.409Z,4.70
2023-12-04T14:46:34.062Z,4.70
2023-12-04T14:49:01.414Z,4.60
2023-12-04T14:51:28.788Z,4.60
2023-12-04T14:54:14.318Z,4.50
2023-12-04T14:57:02.899Z,4.50
2023-12-04T14:59:48.506Z,4.40
2023-12-04T15:02:34.316Z,4.30
2023-12-04T15:05:05.324Z,4.30
2023-12-04T15:07:45.324Z,4.20
2023-12-04T15:10:31.724Z,4.10
2023-12-04T15:13:17.435Z,4.10
2023-12-04T15:15:47.210Z,4.10
2023-12-04T15:18:33.081Z,4.00
2023-12-04T15:21:00.267Z,4.00
2023-12-04T15:23:28.291Z,3.90
2023-12-04T15:25:55.975Z,3.90
2023-12-04T15:28:24.500Z,3.80
2023-12-04T15:30:51.642Z,3.90
2023-12-04T15:33:19.448Z,3.80
2023-12-04T15:35:46.646Z,3.80
2023-12-04T15:38:13.739Z,3.80
2023-12-04T15:40:40.811Z,3.80
2023-12-04T15:43:07.976Z,3.80
2023-12-04T15:45:35.179Z,3.80
2023-12-04T15:48:02.467Z,3.80
2023-12-04T15:50:29.959Z,3.80
2023-12-04T15:53:03.042Z,3.70
2023-12-04T15:55:30.504Z,3.70
2023-12-04T15:57:58.560Z,3.60
2023-12-04T16:00:26.647Z,3.50
2023-12-04T16:02:54.736Z,3.50
2023-12-04T16:05:22.467Z,3.60
2023-12-04T16:07:52.257Z,3.50
2023-12-04T16:10:19.436Z,3.50
2023-12-04T16:12:46.701Z,3.50
2023-12-04T16:15:14.093Z,3.50
2023-12-04T16:17:41.414Z,3.50
2023-12-04T16:20:11.669Z,3.50
2023-12-04T16:22:42.701Z,3.50
2023-12-04T16:25:10.936Z,3.50
2023-12-04T16:27:39.918Z,3.50
2023-12-04T16:30:08.458Z,3.50
2023-12-04T16:32:36.032Z,3.50
2023-12-04T16:35:03.412Z,3.40
2023-12-04T16:37:30.619Z,3.40
2023-12-04T16:39:57.700Z,3.40
2023-12-04T16:42:25.455Z,3.30
2023-12-04T16:44:52.581Z,3.30
2023-12-04T16:47:19.928Z,3.30
2023-12-04T16:49:47.428Z,3.30
2023-12-04T16:52:16.481Z,3.30
2023-12-04T16:54:43.849Z,3.30
2023-12-04T16:57:11.652Z,3.30
2023-12-04T16:59:39.078Z,3.40
2023-12-04T17:02:07.219Z,3.40
2023-12-04T17:04:35.148Z,3.30
2023-12-04T17:07:02.435Z,3.30
2023-12-04T17:09:29.917Z,3.30
2023-12-04T17:11:57.361Z,3.30
2023-12-04T17:14:24.456Z,3.30
2023-12-04T17:16:51.814Z,3.20
2023-12-04T17:19:19.128Z,3.20
2023-12-04T17:21:46.355Z,3.30
2023-12-04T17:24:13.718Z,3.20
2023-12-04T17:26:40.824Z,3.20
2023-12-04T17:29:08.747Z,3.20
2023-12-04T17:31:36.654Z,3.20
2023-12-04T17:34:04.471Z,3.20
2023-12-04T17:36:31.894Z,3.20
2023-12-04T17:38:59.047Z,3.20
2023-12-04T17:41:26.239Z,3.20
2023-12-04T17:43:53.216Z,3.20
2023-12-04T17:46:20.296Z,3.20
2023-12-04T17:48:49.100Z,3.00
2023-12-04T17:51:17.510Z,3.10
2023-12-04T17:53:45.378Z,3.10
2023-12-04T17:56:12.686Z,3.00
2023-12-04T17:58:39.696Z,3.00
2023-12-04T18:01:07.240Z,3.00
2023-12-04T18:03:36.863Z,3.00
2023-12-04T18:06:05.439Z,3.00
2023-12-04T18:08:35.093Z,3.00
2023-12-04T18:11:03.936Z,2.90
2023-12-04T18:13:31.095Z,2.90
2023-12-04T18:15:58.616Z,2.90
2023-12-04T18:18:26.559Z,2.90
2023-12-04T18:20:53.789Z,2.90
2023-12-04T18:23:20.928Z,2.90
2023-12-04T18:25:48.680Z,2.80
2023-12-04T18:28:16.857Z,2.80
2023-12-04T18:30:44.410Z,2.80
2023-12-04T18:33:12.088Z,2.70
2023-12-04T18:35:39.772Z,2.60
2023-12-04T18:38:18.489Z,2.60
2023-12-04T18:40:46.144Z,2.60
2023-12-04T18:43:13.604Z,2.60
2023-12-04T18:45:41.164Z,2.60
2023-12-04T18:48:12.174Z,2.50
2023-12-04T18:50:41.668Z,2.50
2023-12-04T18:53:11.798Z,2.50
2023-12-04T18:55:40.749Z,2.40
2023-12-04T18:58:10.896Z,2.40
2023-12-04T19:00:40.442Z,2.40
2023-12-04T19:03:07.785Z,2.40
2023-12-04T19:05:35.063Z,2.40
2023-12-04T19:08:03.215Z,2.40
2023-12-04T19:10:30.378Z,2.40
2023-12-04T19:12:57.452Z,2.40
2023-12-04T19:15:26.514Z,2.40
2023-12-04T19:17:53.874Z,2.30
2023-12-04T19:20:21.046Z,2.20
2023-12-04T19:22:48.090Z,2.20
2023-12-04T19:25:15.858Z,2.20
2023-12-04T19:27:43.099Z,2.20
2023-12-04T19:30:10.685Z,2.20
2023-12-04T19:32:38.209Z,2.10
2023-12-04T19:35:05.972Z,2.10
2023-12-04T19:37:33.063Z,2.10
2023-12-04T19:40:00.285Z,2.10
2023-12-04T19:42:28.906Z,2.10
2023-12-04T19:44:58.728Z,2.00
2023-12-04T19:47:27.455Z,2.00
2023-12-04T19:49:54.629Z,1.90
2023-12-04T19:52:22.761Z,1.90
2023-12-04T19:54:49.843Z,1.80
2023-12-04T19:57:17.045Z,1.80
2023-12-04T19:59:44.932Z,1.90
2023-12-04T20:02:14.068Z,1.90
2023-12-04T20:04:42.468Z,1.90
2023-12-04T20:07:10.020Z,1.80
2023-12-04T20:09:38.193Z,1.80
2023-12-04T20:12:06.206Z,1.70
2023-12-04T20:14:34.607Z,1.70
2023-12-04T20:17:01.730Z,1.70
2023-12-04T20:19:28.909Z,1.70
2023-12-04T20:21:56.811Z,1.70
2023-12-04T20:24:23.924Z,1.70
2023-12-04T20:26:52.947Z,1.70
2023-12-04T20:29:20.060Z,1.60
2023-12-04T20:31:47.135Z,1.70
2023-12-04T20:34:14.366Z,1.60
2023-12-04T20:36:41.710Z,1.70
2023-12-04T20:39:09.490Z,1.70
2023-12-04T20:41:36.774Z,1.70
2023-12-04T20:44:06.491Z,1.70
2023-12-04T20:46:33.898Z,1.70
2023-12-04T20:49:03.012Z,1.70
2023-12-04T20:51:31.477Z,1.80
2023-12-04T20:53:58.575Z,1.80
2023-12-04T20:56:25.765Z,1.80
2023-12-04T20:58:55.168Z,1.80
2023-12-04T21:01:22.964Z,1.80
2023-12-04T21:03:50.403Z,1.80
2023-12-04T21:06:17.679Z,1.80
2023-12-04T21:08:44.854Z,1.70
2023-12-04T21:11:13.004Z,1.70
2023-12-04T21:13:40.202Z,1.70
2023-12-04T21:16:07.727Z,1.80
2023-12-04T21:18:34.880Z,1.80
2023-12-04T21:21:02.170Z,1.80
2023-12-04T21:23:29.302Z,1.70
2023-12-04T21:25:57.235Z,1.60
2023-12-04T21:28:24.343Z,1.60
2023-12-04T21:30:53.522Z,1.60
2023-12-04T21:33:24.256Z,1.50
2023-12-04T21:35:52.493Z,1.50
2023-12-04T21:38:19.700Z,1.60
2023-12-04T21:40:46.730Z,1.60
2023-12-04T21:43:13.771Z,1.60
2023-12-04T21:45:40.857Z,1.60
2023-12-04T21:48:09.934Z,1.70
2023-12-04T21:50:37.129Z,1.70
2023-12-04T21:53:04.387Z,1.70
2023-12-04T21:55:31.472Z,1.70
2023-12-04T21:57:58.574Z,1.70
2023-12-04T22:00:27.426Z,1.80
2023-12-04T22:02:54.500Z,1.80
2023-12-04T22:05:22.802Z,1.70
2023-12-04T22:07:50.655Z,1.60
2023-12-04T22:10:17.701Z,1.50
2023-12-04T22:12:44.881Z,1.40
2023-12-04T22:15:12.380Z,1.50
2023-12-04T22:17:39.793Z,1.50
2023-12-04T22:20:09.360Z,1.60
2023-12-04T22:22:36.534Z,1.60
2023-12-04T22:25:04.681Z,1.60
2023-12-04T22:27:32.416Z,1.70
2023-12-04T22:29:59.609Z,1.70
2023-12-04T22:32:26.624Z,1.80
2023-12-04T22:34:53.695Z,1.80
2023-12-04T22:37:21.506Z,1.70
2023-12-04T22:39:48.704Z,1.80
2023-12-04T22:42:15.805Z,1.70
2023-12-04T22:44:42.897Z,1.80
2023-12-04T22:47:09.978Z,1.80
2023-12-04T22:49:37.289Z,1.70
2023-12-04T22:52:04.834Z,1.70
2023-12-04T22:54:32.018Z,1.70
2023-12-04T22:56:59.099Z,1.80
2023-12-04T22:59:26.207Z,1.90
2023-12-04T23:01:53.663Z,1.90
2023-12-04T23:04:20.882Z,1.90
2023-12-04T23:06:48.764Z,1.90
2023-12-04T23:09:15.945Z,1.80
2023-12-04T23:11:43.050Z,1.70
2023-12-04T23:14:10.122Z,1.70
2023-12-04T23:16:45.584Z,1.70
2023-12-04T23:19:12.897Z,1.70
2023-12-04T23:21:40.298Z,1.70
2023-12-04T23:24:08.333Z,1.70
2023-12-04T23:26:35.563Z,1.70
2023-12-04T23:29:04.168Z,1.70
2023-12-04T23:31:32.006Z,1.70
2023-12-04T23:33:59.831Z,1.60
2023-12-04T23:36:27.128Z,1.60
2023-12-04T23:38:54.505Z,1.70
2023-12-04T23:41:22.376Z,1.70
2023-12-04T23:43:49.543Z,1.70
2023-12-04T23:46:16.740Z,1.70
2023-12-04T23:48:44.960Z,1.70
2023-12-04T23:51:12.301Z,1.70
2023-12-04T23:53:39.491Z,1.60
2023-12-04T23:56:06.971Z,1.70
2023-12-04T23:58:34.290Z,1.60
